עמוד ראשי
METAR-TAF:

METAR-TAF

שדות תעופה :

Naval Air Station Whiting Field South

Milton, פלורידה, ארצות הברית

קו רוחב: 30-41-50N, קו אורך: 087-01-12W, גובה: 54מטר

תצפית מזג אוויר נוכחית

הדו"ח נערך לפני 1 שעות ו 6דקות, בשעה 16:56 UTC
רוח 8קשר מכיוון מזרח
טמפרטורת 31 צלסיוס
לחות 59%
לחץ 1017 hPa
ראות: 16.1קילומטר
מעט עננים בגובה 3100רגל
עננים פזורים בגובה 12000רגל
עננים בינוניים בגובה 22000רגל

METAR: KNDZ 171656Z 08008KT 10SM FEW031 SCT120 BKN220 31/22 A3004 RMK SLP155 T03110222

זמן: 13:02 (18:02 UTC)


TAF: חסר

תצפיות ותחזיות מזג אוויר לגבי יותר מ- 4,000 שדות תעופה ברחבי העולם. דוחות METAR ו- TAF.

התחנות הזמינות מסומנות בנקודות צהובות ואדומות על גבי המפה.

העבר את העכבר לנקודה הצבעונית על מנת לראות את שם התחנה.

לאחר מכן, לחץ כדי לראות את תוכן ואת תחזיות מזג האוויר.

כדי לשנות את המפה: לחץ על הכפתורים הירוקים עם הפלוס השחור כדי להתקרב; על הכפתור הירוק עם המקף כדי להתרחק; או בחיצים הירוקים למפות סמוכות.


METAR-TAF: